sensor_id;sensor_type;location;lat;lon;timestamp;pressure;altitude;pressure_sealevel;temperature;humidity
17060;BME280;8646;49.716;9.266;2022-08-02T00:02:06;100436.59;;;21.40;69.72
17060;BME280;8646;49.716;9.266;2022-08-02T00:05:11;100432.34;;;21.36;69.83
17060;BME280;8646;49.716;9.266;2022-08-02T00:08:14;100432.59;;;21.32;70.00
17060;BME280;8646;49.716;9.266;2022-08-02T00:11:17;100435.88;;;21.26;70.23
17060;BME280;8646;49.716;9.266;2022-08-02T00:14:21;100434.66;;;21.19;70.56
17060;BME280;8646;49.716;9.266;2022-08-02T00:17:24;100430.53;;;21.14;70.73
17060;BME280;8646;49.716;9.266;2022-08-02T00:20:29;100431.19;;;21.06;70.98
17060;BME280;8646;49.716;9.266;2022-08-02T00:23:32;100434.31;;;21.02;71.14
17060;BME280;8646;49.716;9.266;2022-08-02T00:26:55;100430.84;;;20.88;71.17
17060;BME280;8646;49.716;9.266;2022-08-02T00:29:58;100427.47;;;20.85;71.50
17060;BME280;8646;49.716;9.266;2022-08-02T00:33:01;100428.00;;;20.79;71.88
17060;BME280;8646;49.716;9.266;2022-08-02T00:36:07;100432.25;;;20.72;72.05
17060;BME280;8646;49.716;9.266;2022-08-02T00:39:10;100436.41;;;20.66;72.45
17060;BME280;8646;49.716;9.266;2022-08-02T00:42:33;100446.88;;;20.61;72.49
17060;BME280;8646;49.716;9.266;2022-08-02T00:45:38;100439.91;;;20.57;73.24
17060;BME280;8646;49.716;9.266;2022-08-02T00:49:01;100449.38;;;20.53;73.53
17060;BME280;8646;49.716;9.266;2022-08-02T00:52:08;100453.13;;;20.52;73.87
17060;BME280;8646;49.716;9.266;2022-08-02T00:55:11;100443.88;;;20.53;73.95
17060;BME280;8646;49.716;9.266;2022-08-02T00:58:19;100445.66;;;20.54;74.29
17060;BME280;8646;49.716;9.266;2022-08-02T01:01:22;100451.13;;;20.54;74.30
17060;BME280;8646;49.716;9.266;2022-08-02T01:04:58;100449.16;;;20.56;74.03
17060;BME280;8646;49.716;9.266;2022-08-02T01:08:03;100459.38;;;20.54;74.12
17060;BME280;8646;49.716;9.266;2022-08-02T01:11:05;100452.25;;;20.51;74.53
17060;BME280;8646;49.716;9.266;2022-08-02T01:14:11;100457.75;;;20.51;74.45
17060;BME280;8646;49.716;9.266;2022-08-02T01:17:19;100446.66;;;20.42;74.46
17060;BME280;8646;49.716;9.266;2022-08-02T01:20:48;100450.75;;;20.36;74.53
17060;BME280;8646;49.716;9.266;2022-08-02T01:24:10;100456.63;;;20.32;74.85
17060;BME280;8646;49.716;9.266;2022-08-02T01:27:36;100452.84;;;20.22;74.85
17060;BME280;8646;49.716;9.266;2022-08-02T01:30:44;100452.38;;;20.16;75.58
17060;BME280;8646;49.716;9.266;2022-08-02T01:33:56;100465.72;;;20.10;75.53
17060;BME280;8646;49.716;9.266;2022-08-02T01:37:03;100462.31;;;20.06;75.96
17060;BME280;8646;49.716;9.266;2022-08-02T01:40:09;100468.06;;;20.03;76.37
17060;BME280;8646;49.716;9.266;2022-08-02T01:43:14;100477.31;;;20.02;76.78
17060;BME280;8646;49.716;9.266;2022-08-02T01:46:20;100470.81;;;20.03;76.71
17060;BME280;8646;49.716;9.266;2022-08-02T01:49:27;100480.91;;;20.03;77.00
17060;BME280;8646;49.716;9.266;2022-08-02T01:52:35;100483.53;;;20.04;77.18
17060;BME280;8646;49.716;9.266;2022-08-02T01:55:42;100487.16;;;20.05;77.11
17060;BME280;8646;49.716;9.266;2022-08-02T01:58:59;100481.69;;;20.05;77.04
17060;BME280;8646;49.716;9.266;2022-08-02T02:02:06;100481.69;;;20.05;76.88
17060;BME280;8646;49.716;9.266;2022-08-02T02:05:12;100473.81;;;20.00;76.97
17060;BME280;8646;49.716;9.266;2022-08-02T02:08:20;100460.03;;;19.89;76.99
17060;BME280;8646;49.716;9.266;2022-08-02T02:11:28;100473.44;;;19.94;77.18
17060;BME280;8646;49.716;9.266;2022-08-02T02:14:52;100475.41;;;19.92;77.30
17060;BME280;8646;49.716;9.266;2022-08-02T02:17:59;100472.78;;;19.90;77.30
17060;BME280;8646;49.716;9.266;2022-08-02T02:21:14;100461.03;;;19.88;77.59
17060;BME280;8646;49.716;9.266;2022-08-02T02:24:17;100471.41;;;19.85;77.78
17060;BME280;8646;49.716;9.266;2022-08-02T02:27:21;100468.00;;;19.81;77.86
17060;BME280;8646;49.716;9.266;2022-08-02T02:30:27;100466.75;;;19.74;78.21
17060;BME280;8646;49.716;9.266;2022-08-02T02:33:32;100459.88;;;19.68;78.31
17060;BME280;8646;49.716;9.266;2022-08-02T02:36:38;100458.47;;;19.63;78.41
17060;BME280;8646;49.716;9.266;2022-08-02T02:39:42;100463.97;;;19.63;79.00
17060;BME280;8646;49.716;9.266;2022-08-02T02:42:46;100465.44;;;19.56;79.46
17060;BME280;8646;49.716;9.266;2022-08-02T02:45:50;100461.41;;;19.49;79.90
17060;BME280;8646;49.716;9.266;2022-08-02T02:48:56;100462.47;;;19.46;80.15
17060;BME280;8646;49.716;9.266;2022-08-02T02:52:01;100467.47;;;19.41;80.24
17060;BME280;8646;49.716;9.266;2022-08-02T02:55:05;100462.34;;;19.36;80.44
17060;BME280;8646;49.716;9.266;2022-08-02T02:58:12;100462.78;;;19.30;80.35
17060;BME280;8646;49.716;9.266;2022-08-02T03:01:15;100460.78;;;19.21;80.59
17060;BME280;8646;49.716;9.266;2022-08-02T03:04:54;100452.88;;;19.17;80.65
17060;BME280;8646;49.716;9.266;2022-08-02T03:07:58;100458.72;;;19.12;80.78
17060;BME280;8646;49.716;9.266;2022-08-02T03:11:02;100459.94;;;19.08;80.83
17060;BME280;8646;49.716;9.266;2022-08-02T03:14:09;100460.19;;;19.05;81.10
17060;BME280;8646;49.716;9.266;2022-08-02T03:17:12;100459.44;;;19.03;81.35
17060;BME280;8646;49.716;9.266;2022-08-02T03:20:19;100454.16;;;19.00;81.38
17060;BME280;8646;49.716;9.266;2022-08-02T03:23:23;100462.38;;;19.00;81.71
17060;BME280;8646;49.716;9.266;2022-08-02T03:26:26;100462.63;;;18.97;81.78
17060;BME280;8646;49.716;9.266;2022-08-02T03:29:29;100460.22;;;18.92;81.73
17060;BME280;8646;49.716;9.266;2022-08-02T03:32:37;100470.56;;;18.89;81.74
17060;BME280;8646;49.716;9.266;2022-08-02T03:35:42;100467.06;;;18.87;81.71
17060;BME280;8646;49.716;9.266;2022-08-02T03:38:46;100483.72;;;18.84;81.90
17060;BME280;8646;49.716;9.266;2022-08-02T03:41:49;100477.47;;;18.82;81.97
17060;BME280;8646;49.716;9.266;2022-08-02T03:44:54;100482.94;;;18.82;81.69
17060;BME280;8646;49.716;9.266;2022-08-02T03:47:58;100479.47;;;18.80;82.11
17060;BME280;8646;49.716;9.266;2022-08-02T03:51:03;100487.69;;;18.80;82.14
17060;BME280;8646;49.716;9.266;2022-08-02T03:54:08;100484.81;;;18.81;81.86
17060;BME280;8646;49.716;9.266;2022-08-02T03:57:12;100489.19;;;18.84;82.08
17060;BME280;8646;49.716;9.266;2022-08-02T04:00:18;100476.72;;;18.80;81.93
17060;BME280;8646;49.716;9.266;2022-08-02T04:03:21;100488.00;;;18.88;82.04
17060;BME280;8646;49.716;9.266;2022-08-02T04:06:25;100476.91;;;18.89;81.80
17060;BME280;8646;49.716;9.266;2022-08-02T04:09:29;100481.63;;;18.87;81.73
17060;BME280;8646;49.716;9.266;2022-08-02T04:12:32;100480.97;;;18.84;81.91
17060;BME280;8646;49.716;9.266;2022-08-02T04:15:36;100491.06;;;18.83;81.89
17060;BME280;8646;49.716;9.266;2022-08-02T04:18:45;100489.75;;;18.89;81.78
17060;BME280;8646;49.716;9.266;2022-08-02T04:21:52;100471.56;;;18.75;81.77
17060;BME280;8646;49.716;9.266;2022-08-02T04:24:59;100489.97;;;18.86;81.80
17060;BME280;8646;49.716;9.266;2022-08-02T04:28:05;100501.25;;;18.94;81.68
17060;BME280;8646;49.716;9.266;2022-08-02T04:31:18;100493.50;;;18.88;81.59
17060;BME280;8646;49.716;9.266;2022-08-02T04:34:22;100506.03;;;19.03;81.29
17060;BME280;8646;49.716;9.266;2022-08-02T04:37:27;100506.56;;;19.08;81.26
17060;BME280;8646;49.716;9.266;2022-08-02T04:40:31;100499.97;;;19.11;81.15
17060;BME280;8646;49.716;9.266;2022-08-02T04:43:34;100503.59;;;19.11;81.37
17060;BME280;8646;49.716;9.266;2022-08-02T04:46:38;100500.75;;;19.13;81.03
17060;BME280;8646;49.716;9.266;2022-08-02T04:49:41;100501.38;;;19.16;81.10
17060;BME280;8646;49.716;9.266;2022-08-02T04:52:45;100502.03;;;19.20;80.67
17060;BME280;8646;49.716;9.266;2022-08-02T04:55:49;100509.78;;;19.26;80.72
17060;BME280;8646;49.716;9.266;2022-08-02T04:58:51;100506.69;;;19.30;80.32
17060;BME280;8646;49.716;9.266;2022-08-02T05:01:56;100494.50;;;19.34;80.16
17060;BME280;8646;49.716;9.266;2022-08-02T05:04:59;100502.50;;;19.37;80.15
17060;BME280;8646;49.716;9.266;2022-08-02T05:08:08;100510.81;;;19.49;80.09
17060;BME280;8646;49.716;9.266;2022-08-02T05:11:11;100504.63;;;19.58;79.56
17060;BME280;8646;49.716;9.266;2022-08-02T05:14:15;100506.16;;;19.62;79.41
17060;BME280;8646;49.716;9.266;2022-08-02T05:17:17;100510.19;;;19.80;78.85
17060;BME280;8646;49.716;9.266;2022-08-02T05:20:21;100508.66;;;20.00;78.14
17060;BME280;8646;49.716;9.266;2022-08-02T05:23:25;100512.09;;;20.37;76.99
17060;BME280;8646;49.716;9.266;2022-08-02T05:26:28;100510.75;;;20.42;76.64
17060;BME280;8646;49.716;9.266;2022-08-02T05:29:31;100503.38;;;20.54;76.83
17060;BME280;8646;49.716;9.266;2022-08-02T05:32:36;100502.50;;;20.65;76.78
17060;BME280;8646;49.716;9.266;2022-08-02T05:35:45;100513.63;;;20.74;76.52
17060;BME280;8646;49.716;9.266;2022-08-02T05:38:50;100510.38;;;20.91;76.13
17060;BME280;8646;49.716;9.266;2022-08-02T05:42:02;100505.06;;;21.11;75.65
17060;BME280;8646;49.716;9.266;2022-08-02T05:45:08;100497.81;;;21.32;75.03
17060;BME280;8646;49.716;9.266;2022-08-02T05:48:17;100493.97;;;21.55;74.38
17060;BME280;8646;49.716;9.266;2022-08-02T05:51:35;100489.22;;;22.71;70.66
17060;BME280;8646;49.716;9.266;2022-08-02T05:54:51;100473.50;;;24.00;66.65
17060;BME280;8646;49.716;9.266;2022-08-02T05:58:02;100466.63;;;24.69;63.68
17060;BME280;8646;49.716;9.266;2022-08-02T06:01:12;100461.59;;;24.83;62.95
17060;BME280;8646;49.716;9.266;2022-08-02T06:04:24;100456.00;;;25.02;62.12
17060;BME280;8646;49.716;9.266;2022-08-02T06:07:28;100459.84;;;25.36;60.20
17060;BME280;8646;49.716;9.266;2022-08-02T06:10:36;100462.25;;;25.84;58.93
17060;BME280;8646;49.716;9.266;2022-08-02T06:13:45;100454.06;;;26.01;57.65
17060;BME280;8646;49.716;9.266;2022-08-02T06:16:51;100461.50;;;26.18;57.01
17060;BME280;8646;49.716;9.266;2022-08-02T06:19:56;100459.44;;;26.46;56.12
17060;BME280;8646;49.716;9.266;2022-08-02T06:23:00;100460.94;;;26.66;55.55
17060;BME280;8646;49.716;9.266;2022-08-02T06:26:07;100459.00;;;26.92;54.89
17060;BME280;8646;49.716;9.266;2022-08-02T06:29:11;100457.16;;;27.09;53.48
17060;BME280;8646;49.716;9.266;2022-08-02T06:32:16;100446.72;;;27.03;53.50
17060;BME280;8646;49.716;9.266;2022-08-02T06:35:20;100456.03;;;27.44;51.98
17060;BME280;8646;49.716;9.266;2022-08-02T06:38:24;100453.50;;;27.91;50.69
17060;BME280;8646;49.716;9.266;2022-08-02T06:41:38;100444.97;;;28.41;50.15
17060;BME280;8646;49.716;9.266;2022-08-02T06:44:44;100441.78;;;28.69;48.52
17060;BME280;8646;49.716;9.266;2022-08-02T06:47:50;100441.53;;;28.87;48.43
17060;BME280;8646;49.716;9.266;2022-08-02T06:50:53;100439.66;;;29.18;47.30
17060;BME280;8646;49.716;9.266;2022-08-02T06:53:56;100434.16;;;29.41;47.10
17060;BME280;8646;49.716;9.266;2022-08-02T06:57:00;100433.00;;;29.58;46.73
17060;BME280;8646;49.716;9.266;2022-08-02T07:00:04;100433.53;;;29.76;46.24
17060;BME280;8646;49.716;9.266;2022-08-02T07:03:09;100418.47;;;29.85;45.46
17060;BME280;8646;49.716;9.266;2022-08-02T07:06:13;100435.69;;;30.12;45.19
17060;BME280;8646;49.716;9.266;2022-08-02T07:09:16;100445.13;;;30.11;44.59
17060;BME280;8646;49.716;9.266;2022-08-02T07:12:23;100451.94;;;29.85;44.81
17060;BME280;8646;49.716;9.266;2022-08-02T07:15:26;100447.88;;;29.73;45.15
17060;BME280;8646;49.716;9.266;2022-08-02T07:18:30;100438.63;;;29.73;44.91
17060;BME280;8646;49.716;9.266;2022-08-02T07:21:33;100437.47;;;29.67;44.98
17060;BME280;8646;49.716;9.266;2022-08-02T07:24:58;100434.72;;;29.82;44.63
17060;BME280;8646;49.716;9.266;2022-08-02T07:28:03;100436.13;;;30.01;44.33
17060;BME280;8646;49.716;9.266;2022-08-02T07:31:06;100437.44;;;30.13;43.66
17060;BME280;8646;49.716;9.266;2022-08-02T07:34:09;100435.44;;;30.21;44.05
17060;BME280;8646;49.716;9.266;2022-08-02T07:37:12;100416.31;;;29.95;43.86
17060;BME280;8646;49.716;9.266;2022-08-02T07:40:35;100435.81;;;30.18;43.66
17060;BME280;8646;49.716;9.266;2022-08-02T07:43:41;100434.63;;;29.98;43.98
17060;BME280;8646;49.716;9.266;2022-08-02T07:46:44;100437.31;;;29.83;43.87
17060;BME280;8646;49.716;9.266;2022-08-02T07:49:48;100436.44;;;29.60;43.86
17060;BME280;8646;49.716;9.266;2022-08-02T07:52:50;100436.25;;;29.62;43.59
17060;BME280;8646;49.716;9.266;2022-08-02T07:55:58;100414.53;;;29.57;43.00
17060;BME280;8646;49.716;9.266;2022-08-02T07:59:02;100420.84;;;29.74;43.06
17060;BME280;8646;49.716;9.266;2022-08-02T08:02:05;100426.50;;;29.35;43.31
17060;BME280;8646;49.716;9.266;2022-08-02T08:05:09;100430.00;;;29.29;43.34
17060;BME280;8646;49.716;9.266;2022-08-02T08:08:12;100421.22;;;29.17;41.97
17060;BME280;8646;49.716;9.266;2022-08-02T08:11:18;100422.28;;;28.69;41.04
17060;BME280;8646;49.716;9.266;2022-08-02T08:14:22;100425.16;;;28.36;41.78
17060;BME280;8646;49.716;9.266;2022-08-02T08:17:25;100438.41;;;28.02;42.81
17060;BME280;8646;49.716;9.266;2022-08-02T08:20:27;100433.09;;;27.34;43.50
17060;BME280;8646;49.716;9.266;2022-08-02T08:23:31;100430.84;;;26.87;44.75
17060;BME280;8646;49.716;9.266;2022-08-02T08:26:34;100430.69;;;26.55;45.54
17060;BME280;8646;49.716;9.266;2022-08-02T08:29:38;100444.81;;;26.36;46.41
17060;BME280;8646;49.716;9.266;2022-08-02T08:32:42;100444.34;;;26.22;46.38
17060;BME280;8646;49.716;9.266;2022-08-02T08:35:45;100446.34;;;26.12;45.86
17060;BME280;8646;49.716;9.266;2022-08-02T08:38:48;100444.47;;;25.95;44.63
17060;BME280;8646;49.716;9.266;2022-08-02T08:41:51;100435.47;;;25.93;43.89
17060;BME280;8646;49.716;9.266;2022-08-02T08:44:56;100429.59;;;25.96;43.75
17060;BME280;8646;49.716;9.266;2022-08-02T08:48:00;100423.00;;;25.97;44.51
17060;BME280;8646;49.716;9.266;2022-08-02T08:51:06;100426.34;;;26.01;44.77
17060;BME280;8646;49.716;9.266;2022-08-02T08:54:12;100426.00;;;26.04;44.47
17060;BME280;8646;49.716;9.266;2022-08-02T08:57:17;100424.81;;;26.06;44.82
17060;BME280;8646;49.716;9.266;2022-08-02T09:00:22;100421.94;;;26.16;45.04
17060;BME280;8646;49.716;9.266;2022-08-02T09:03:25;100429.91;;;26.19;45.18
17060;BME280;8646;49.716;9.266;2022-08-02T09:06:34;100426.66;;;26.23;45.17
17060;BME280;8646;49.716;9.266;2022-08-02T09:09:37;100428.66;;;26.31;44.22
17060;BME280;8646;49.716;9.266;2022-08-02T09:12:40;100433.34;;;26.31;44.08
17060;BME280;8646;49.716;9.266;2022-08-02T09:15:45;100418.66;;;26.38;43.93
17060;BME280;8646;49.716;9.266;2022-08-02T09:18:54;100416.22;;;26.43;43.57
17060;BME280;8646;49.716;9.266;2022-08-02T09:22:00;100399.53;;;26.35;42.46
17060;BME280;8646;49.716;9.266;2022-08-02T09:25:14;100412.09;;;26.47;41.01
17060;BME280;8646;49.716;9.266;2022-08-02T09:28:17;100413.91;;;26.31;39.95
17060;BME280;8646;49.716;9.266;2022-08-02T09:31:22;100413.69;;;26.24;40.82
17060;BME280;8646;49.716;9.266;2022-08-02T09:34:28;100398.94;;;26.23;40.07
17060;BME280;8646;49.716;9.266;2022-08-02T09:37:44;100400.75;;;26.33;40.12
17060;BME280;8646;49.716;9.266;2022-08-02T09:40:49;100413.97;;;26.39;40.13
17060;BME280;8646;49.716;9.266;2022-08-02T09:43:53;100392.84;;;26.46;40.26
17060;BME280;8646;49.716;9.266;2022-08-02T09:47:14;100413.25;;;26.71;40.26
17060;BME280;8646;49.716;9.266;2022-08-02T09:50:18;100414.72;;;26.83;39.58
17060;BME280;8646;49.716;9.266;2022-08-02T09:53:22;100405.16;;;26.85;38.91
17060;BME280;8646;49.716;9.266;2022-08-02T09:56:28;100397.16;;;26.74;38.57
17060;BME280;8646;49.716;9.266;2022-08-02T09:59:51;100395.91;;;26.69;38.55
17060;BME280;8646;49.716;9.266;2022-08-02T10:03:11;100395.94;;;26.85;39.13
17060;BME280;8646;49.716;9.266;2022-08-02T10:06:23;100390.38;;;26.77;38.68
17060;BME280;8646;49.716;9.266;2022-08-02T10:09:27;100393.53;;;26.82;38.58
17060;BME280;8646;49.716;9.266;2022-08-02T10:12:30;100392.75;;;26.98;38.29
17060;BME280;8646;49.716;9.266;2022-08-02T10:15:33;100387.91;;;27.00;37.62
17060;BME280;8646;49.716;9.266;2022-08-02T10:18:37;100383.41;;;27.07;37.25
17060;BME280;8646;49.716;9.266;2022-08-02T10:21:44;100378.88;;;27.06;37.37
17060;BME280;8646;49.716;9.266;2022-08-02T10:24:49;100377.16;;;27.13;37.29
17060;BME280;8646;49.716;9.266;2022-08-02T10:27:53;100377.88;;;27.15;37.48
17060;BME280;8646;49.716;9.266;2022-08-02T10:31:06;100372.13;;;27.24;37.53
17060;BME280;8646;49.716;9.266;2022-08-02T10:34:16;100372.66;;;27.28;37.33
17060;BME280;8646;49.716;9.266;2022-08-02T10:37:22;100368.84;;;27.29;37.33
17060;BME280;8646;49.716;9.266;2022-08-02T10:40:42;100369.75;;;27.46;36.96
17060;BME280;8646;49.716;9.266;2022-08-02T10:43:47;100372.50;;;27.46;37.41
17060;BME280;8646;49.716;9.266;2022-08-02T10:46:52;100364.22;;;27.54;37.03
17060;BME280;8646;49.716;9.266;2022-08-02T10:50:17;100362.47;;;27.69;36.96
17060;BME280;8646;49.716;9.266;2022-08-02T10:53:24;100352.38;;;27.84;37.06
17060;BME280;8646;49.716;9.266;2022-08-02T10:56:45;100346.78;;;28.00;36.01
17060;BME280;8646;49.716;9.266;2022-08-02T10:59:50;100338.59;;;27.99;35.63
17060;BME280;8646;49.716;9.266;2022-08-02T11:02:53;100347.50;;;27.94;35.53
17060;BME280;8646;49.716;9.266;2022-08-02T11:06:02;100337.09;;;27.80;35.60
17060;BME280;8646;49.716;9.266;2022-08-02T11:09:24;100334.50;;;27.79;35.03
17060;BME280;8646;49.716;9.266;2022-08-02T11:13:00;100340.94;;;27.71;36.06
17060;BME280;8646;49.716;9.266;2022-08-02T11:16:04;100339.00;;;27.88;36.20
17060;BME280;8646;49.716;9.266;2022-08-02T11:19:12;100336.69;;;28.07;36.01
17060;BME280;8646;49.716;9.266;2022-08-02T11:22:16;100337.34;;;28.26;36.03
17060;BME280;8646;49.716;9.266;2022-08-02T11:25:30;100319.22;;;28.38;35.68
17060;BME280;8646;49.716;9.266;2022-08-02T11:28:54;100318.81;;;28.49;35.84
17060;BME280;8646;49.716;9.266;2022-08-02T11:31:57;100319.63;;;28.66;35.42
17060;BME280;8646;49.716;9.266;2022-08-02T11:35:01;100303.03;;;28.80;35.41
17060;BME280;8646;49.716;9.266;2022-08-02T11:38:13;100310.59;;;28.95;35.42
17060;BME280;8646;49.716;9.266;2022-08-02T11:41:18;100304.84;;;28.96;34.02
17060;BME280;8646;49.716;9.266;2022-08-02T11:44:41;100299.50;;;28.87;34.21
17060;BME280;8646;49.716;9.266;2022-08-02T11:47:44;100294.13;;;28.85;34.42
17060;BME280;8646;49.716;9.266;2022-08-02T11:51:01;100295.78;;;29.02;34.27
17060;BME280;8646;49.716;9.266;2022-08-02T11:54:05;100296.06;;;29.07;34.18
17060;BME280;8646;49.716;9.266;2022-08-02T11:57:10;100297.06;;;29.14;34.13
17060;BME280;8646;49.716;9.266;2022-08-02T12:00:20;100296.81;;;29.24;34.13
17060;BME280;8646;49.716;9.266;2022-08-02T12:03:34;100294.31;;;29.29;33.69
17060;BME280;8646;49.716;9.266;2022-08-02T12:06:37;100300.72;;;29.38;33.83
17060;BME280;8646;49.716;9.266;2022-08-02T12:09:41;100297.69;;;29.47;33.52
17060;BME280;8646;49.716;9.266;2022-08-02T12:12:48;100293.59;;;29.58;33.53
17060;BME280;8646;49.716;9.266;2022-08-02T12:15:53;100285.16;;;29.66;33.68
17060;BME280;8646;49.716;9.266;2022-08-02T12:19:17;100280.81;;;29.78;33.38
17060;BME280;8646;49.716;9.266;2022-08-02T12:22:23;100287.84;;;29.74;33.05
17060;BME280;8646;49.716;9.266;2022-08-02T12:25:29;100285.44;;;29.71;33.09
17060;BME280;8646;49.716;9.266;2022-08-02T12:28:37;100290.63;;;29.74;33.55
17060;BME280;8646;49.716;9.266;2022-08-02T12:31:42;100292.84;;;29.79;33.28
17060;BME280;8646;49.716;9.266;2022-08-02T12:35:07;100288.53;;;29.91;33.31
17060;BME280;8646;49.716;9.266;2022-08-02T12:38:11;100285.00;;;29.97;32.32
17060;BME280;8646;49.716;9.266;2022-08-02T12:41:15;100280.38;;;29.89;33.33
17060;BME280;8646;49.716;9.266;2022-08-02T12:44:33;100278.84;;;30.02;32.80
17060;BME280;8646;49.716;9.266;2022-08-02T12:47:44;100273.16;;;30.10;32.44
17060;BME280;8646;49.716;9.266;2022-08-02T12:50:49;100273.56;;;30.21;32.23
17060;BME280;8646;49.716;9.266;2022-08-02T12:53:52;100264.91;;;30.31;31.96
17060;BME280;8646;49.716;9.266;2022-08-02T12:57:10;100257.75;;;30.43;32.10
17060;BME280;8646;49.716;9.266;2022-08-02T13:00:22;100253.09;;;30.50;31.76
17060;BME280;8646;49.716;9.266;2022-08-02T13:03:24;100257.84;;;30.64;31.80
17060;BME280;8646;49.716;9.266;2022-08-02T13:06:47;100259.03;;;30.77;31.83
17060;BME280;8646;49.716;9.266;2022-08-02T13:09:50;100257.88;;;30.86;31.89
17060;BME280;8646;49.716;9.266;2022-08-02T13:13:05;100256.88;;;30.93;31.92
17060;BME280;8646;49.716;9.266;2022-08-02T13:16:08;100246.19;;;30.97;31.49
17060;BME280;8646;49.716;9.266;2022-08-02T13:19:12;100249.22;;;31.02;31.01
17060;BME280;8646;49.716;9.266;2022-08-02T13:22:16;100261.72;;;31.06;31.03
17060;BME280;8646;49.716;9.266;2022-08-02T13:25:20;100258.53;;;30.88;31.18
17060;BME280;8646;49.716;9.266;2022-08-02T13:28:25;100243.28;;;30.69;31.09
17060;BME280;8646;49.716;9.266;2022-08-02T13:31:28;100243.22;;;30.62;30.86
17060;BME280;8646;49.716;9.266;2022-08-02T13:34:37;100244.94;;;30.63;31.06
17060;BME280;8646;49.716;9.266;2022-08-02T13:37:40;100242.16;;;30.63;30.77
17060;BME280;8646;49.716;9.266;2022-08-02T13:40:43;100232.50;;;30.66;30.79
17060;BME280;8646;49.716;9.266;2022-08-02T13:44:07;100228.94;;;30.72;30.52
17060;BME280;8646;49.716;9.266;2022-08-02T13:47:11;100233.09;;;30.83;30.84
17060;BME280;8646;49.716;9.266;2022-08-02T13:50:15;100230.34;;;31.04;30.56
17060;BME280;8646;49.716;9.266;2022-08-02T13:53:17;100231.28;;;31.11;30.45
17060;BME280;8646;49.716;9.266;2022-08-02T13:56:20;100221.09;;;31.25;30.46
17060;BME280;8646;49.716;9.266;2022-08-02T13:59:37;100218.78;;;31.28;29.45
17060;BME280;8646;49.716;9.266;2022-08-02T14:02:59;100204.31;;;31.25;29.43
17060;BME280;8646;49.716;9.266;2022-08-02T14:06:02;100208.94;;;31.11;29.79
17060;BME280;8646;49.716;9.266;2022-08-02T14:09:07;100214.72;;;31.09;29.71
17060;BME280;8646;49.716;9.266;2022-08-02T14:12:16;100218.28;;;31.03;29.78
17060;BME280;8646;49.716;9.266;2022-08-02T14:15:20;100203.66;;;31.01;30.07
17060;BME280;8646;49.716;9.266;2022-08-02T14:18:23;100206.19;;;30.96;30.45
17060;BME280;8646;49.716;9.266;2022-08-02T14:21:26;100202.78;;;31.01;30.25
17060;BME280;8646;49.716;9.266;2022-08-02T14:24:28;100209.53;;;31.06;30.04
17060;BME280;8646;49.716;9.266;2022-08-02T14:27:32;100194.50;;;31.07;29.62
17060;BME280;8646;49.716;9.266;2022-08-02T14:30:41;100190.88;;;31.14;30.12
17060;BME280;8646;49.716;9.266;2022-08-02T14:33:44;100186.84;;;31.16;29.83
17060;BME280;8646;49.716;9.266;2022-08-02T14:36:47;100173.28;;;31.13;29.39
17060;BME280;8646;49.716;9.266;2022-08-02T14:39:54;100186.97;;;31.29;29.51
17060;BME280;8646;49.716;9.266;2022-08-02T14:43:01;100174.69;;;31.30;29.03
17060;BME280;8646;49.716;9.266;2022-08-02T14:46:06;100178.09;;;31.26;28.82
17060;BME280;8646;49.716;9.266;2022-08-02T14:49:10;100161.09;;;31.21;29.20
17060;BME280;8646;49.716;9.266;2022-08-02T14:52:24;100169.16;;;31.37;29.28
17060;BME280;8646;49.716;9.266;2022-08-02T14:55:27;100162.75;;;31.43;28.82
17060;BME280;8646;49.716;9.266;2022-08-02T14:58:30;100168.78;;;31.46;28.78
17060;BME280;8646;49.716;9.266;2022-08-02T15:01:35;100169.22;;;31.43;28.94
17060;BME280;8646;49.716;9.266;2022-08-02T15:04:38;100167.44;;;31.36;29.07
17060;BME280;8646;49.716;9.266;2022-08-02T15:07:44;100165.91;;;31.33;28.76
17060;BME280;8646;49.716;9.266;2022-08-02T15:10:50;100152.78;;;31.34;28.69
17060;BME280;8646;49.716;9.266;2022-08-02T15:13:52;100164.44;;;31.37;29.16
17060;BME280;8646;49.716;9.266;2022-08-02T15:17:00;100158.28;;;31.48;28.85
17060;BME280;8646;49.716;9.266;2022-08-02T15:20:04;100150.78;;;31.56;28.53
17060;BME280;8646;49.716;9.266;2022-08-02T15:23:26;100154.41;;;31.50;28.78
17060;BME280;8646;49.716;9.266;2022-08-02T15:26:39;100161.25;;;31.47;28.67
17060;BME280;8646;49.716;9.266;2022-08-02T15:29:43;100159.28;;;31.41;28.93
17060;BME280;8646;49.716;9.266;2022-08-02T15:32:47;100151.81;;;31.48;28.84
17060;BME280;8646;49.716;9.266;2022-08-02T15:35:54;100151.72;;;31.63;28.20
17060;BME280;8646;49.716;9.266;2022-08-02T15:38:56;100146.69;;;31.52;28.02
17060;BME280;8646;49.716;9.266;2022-08-02T15:41:59;100148.97;;;31.41;28.67
17060;BME280;8646;49.716;9.266;2022-08-02T15:45:02;100153.75;;;31.47;28.80
17060;BME280;8646;49.716;9.266;2022-08-02T15:48:07;100145.81;;;31.51;28.68
17060;BME280;8646;49.716;9.266;2022-08-02T15:51:10;100150.75;;;31.49;28.36
17060;BME280;8646;49.716;9.266;2022-08-02T15:54:12;100160.34;;;31.40;28.70
17060;BME280;8646;49.716;9.266;2022-08-02T15:57:15;100154.41;;;31.50;28.44
17060;BME280;8646;49.716;9.266;2022-08-02T16:00:18;100155.97;;;31.59;28.58
17060;BME280;8646;49.716;9.266;2022-08-02T16:03:24;100158.53;;;31.54;28.81
17060;BME280;8646;49.716;9.266;2022-08-02T16:06:27;100155.63;;;31.40;28.90
17060;BME280;8646;49.716;9.266;2022-08-02T16:09:29;100161.03;;;31.42;29.04
17060;BME280;8646;49.716;9.266;2022-08-02T16:12:32;100158.56;;;31.32;28.52
17060;BME280;8646;49.716;9.266;2022-08-02T16:15:35;100152.56;;;31.07;28.94
17060;BME280;8646;49.716;9.266;2022-08-02T16:18:40;100165.78;;;30.99;29.79
17060;BME280;8646;49.716;9.266;2022-08-02T16:21:42;100161.00;;;30.93;29.51
17060;BME280;8646;49.716;9.266;2022-08-02T16:24:45;100165.44;;;30.81;30.26
17060;BME280;8646;49.716;9.266;2022-08-02T16:27:48;100161.69;;;30.73;30.09
17060;BME280;8646;49.716;9.266;2022-08-02T16:31:07;100159.63;;;30.61;30.37